Time;durP1;ratioP1;P1;durP2;ratioP2;P2;SDS_P1;SDS_P2;PMS_P1;PMS_P2;Temp;Humidity;BMP_temperature;BMP_pressure;BME280_temperature;BME280_humidity;BME280_pressure;Samples;Min_cycle;Max_cycle;Signal;HPM_P1;HPM_P2
2022/07/17 00:02:08;;;;;;;0.08;0.08;;;;;;;23.70;54.37;101800.72;7357125;19;20466;-62
2022/07/17 00:04:34;;;;;;;0.10;0.10;;;;;;;23.69;53.77;101807.03;7356389;19;20010;-62
2022/07/17 00:06:59;;;;;;;0.08;0.08;;;;;;;23.63;53.63;101804.69;7357701;19;20645;-62
2022/07/17 00:09:25;;;;;;;0.00;0.00;;;;;;;23.59;53.86;101800.50;7359176;19;20753;-62
2022/07/17 00:11:50;;;;;;;0.00;0.00;;;;;;;23.61;53.96;101815.44;7356926;19;20414;-62
2022/07/17 00:14:15;;;;;;;0.00;0.00;;;;;;;23.58;54.13;101818.31;7356127;19;20011;-62
2022/07/17 00:16:41;;;;;;;0.00;0.00;;;;;;;23.52;53.04;101805.34;7355779;19;20473;-62
2022/07/17 00:19:06;;;;;;;0.00;0.00;;;;;;;23.44;53.42;101811.13;7357383;19;20577;-63
2022/07/17 00:21:32;;;;;;;0.00;0.00;;;;;;;23.37;53.25;101808.88;7355689;19;20017;-62
2022/07/17 00:23:58;;;;;;;0.00;0.00;;;;;;;23.25;53.89;101799.81;7356732;19;20011;-62
2022/07/17 00:26:23;;;;;;;0.00;0.00;;;;;;;23.16;54.64;101800.34;7356566;19;20014;-62
2022/07/17 00:28:49;;;;;;;0.00;0.00;;;;;;;23.10;54.61;101795.38;7356703;19;20034;-62
2022/07/17 00:31:14;;;;;;;0.00;0.00;;;;;;;23.03;54.47;101793.06;7352293;19;20014;-62
2022/07/17 00:33:39;;;;;;;0.00;0.00;;;;;;;22.98;53.80;101789.81;7346974;19;20006;-62
2022/07/17 00:36:05;;;;;;;0.00;0.00;;;;;;;22.85;53.83;101770.13;7351140;19;20943;-61
2022/07/17 00:38:30;;;;;;;0.00;0.00;;;;;;;22.89;53.70;101776.16;7350225;19;20812;-62
2022/07/17 00:40:56;;;;;;;0.00;0.00;;;;;;;22.84;54.37;101764.88;7353763;19;20466;-62
2022/07/17 00:43:23;;;;;;;0.00;0.00;;;;;;;22.79;53.90;101770.47;7354572;19;20003;-61
2022/07/17 00:46:02;;;;;;;0.00;0.00;;;;;;;22.75;53.06;101768.91;7351605;19;20051;-61
2022/07/17 00:48:28;;;;;;;0.00;0.00;;;;;;;22.69;54.55;101761.28;7353972;19;20015;-62
2022/07/17 00:50:54;;;;;;;0.00;0.00;;;;;;;22.66;54.60;101753.50;7354435;19;20648;-62
2022/07/17 00:53:21;;;;;;;0.10;0.10;;;;;;;22.65;55.19;101749.09;7354180;19;20018;-62
2022/07/17 00:55:47;;;;;;;0.00;0.00;;;;;;;22.62;55.10;101744.81;7353148;19;20018;-62
2022/07/17 00:58:24;;;;;;;0.00;0.00;;;;;;;22.61;53.97;101734.22;7352561;19;20110;-62
2022/07/17 01:00:51;;;;;;;;;;;;;;;22.58;52.29;101724.63;7355089;19;20668;-62
2022/07/17 01:03:18;;;;;;;0.00;0.00;;;;;;;22.48;54.24;101724.28;7352446;19;19975;-62
2022/07/17 01:05:43;;;;;;;0.00;0.00;;;;;;;22.49;54.63;101725.13;7349884;19;20034;-62
2022/07/17 01:08:09;;;;;;;0.00;0.00;;;;;;;22.45;55.72;101710.28;7351977;19;20006;-62
2022/07/17 01:10:35;;;;;;;0.00;0.00;;;;;;;22.36;54.39;101697.50;7353625;19;20597;-62
2022/07/17 01:13:00;;;;;;;0.05;0.05;;;;;;;22.37;54.69;101705.41;7354698;19;20590;-62
2022/07/17 01:15:26;;;;;;;0.00;0.00;;;;;;;22.33;55.53;101695.88;7352639;19;20145;-62
2022/07/17 01:17:51;;;;;;;0.00;0.00;;;;;;;22.30;55.54;101677.41;7351898;19;20003;-62
2022/07/17 01:20:17;;;;;;;0.00;0.00;;;;;;;22.25;56.19;101674.13;7350873;19;20042;-62
2022/07/17 01:22:45;;;;;;;0.00;0.00;;;;;;;22.21;56.17;101670.81;7353423;19;20010;-62
2022/07/17 01:25:11;;;;;;;0.00;0.00;;;;;;;22.19;56.83;101672.69;7349626;19;20733;-62
2022/07/17 01:27:37;;;;;;;0.00;0.00;;;;;;;22.19;56.91;101663.84;7352149;19;20026;-62
2022/07/17 01:30:04;;;;;;;0.00;0.00;;;;;;;22.20;55.36;101665.56;7350810;19;20094;-62
2022/07/17 01:32:34;;;;;;;0.10;0.10;;;;;;;22.21;55.64;101661.97;7351597;19;20036;-62
2022/07/17 01:35:01;;;;;;;0.00;0.00;;;;;;;22.11;56.80;101655.47;7352283;19;20038;-62
2022/07/17 01:37:26;;;;;;;0.00;0.00;;;;;;;;;;7351090;19;20078;-62
2022/07/17 01:39:54;;;;;;;0.00;0.00;;;;;;;;;;7353001;19;22306;-62
2022/07/17 01:42:21;;;;;;;0.00;0.00;;;;;;;22.15;57.00;101670.28;7353421;19;20023;-61
2022/07/17 01:44:47;;;;;;;0.00;0.00;;;;;;;22.21;56.71;101680.59;7350250;19;20761;-61
2022/07/17 01:47:14;;;;;;;0.00;0.00;;;;;;;;;;7354122;19;20035;-61
2022/07/17 01:49:43;;;;;;;0.00;0.00;;;;;;;22.21;56.50;101683.25;7353267;19;20013;-62
2022/07/17 01:52:09;;;;;;;0.00;0.00;;;;;;;22.12;56.69;101670.47;7351342;19;20010;-62
2022/07/17 01:54:34;;;;;;;0.10;0.10;;;;;;;22.22;56.71;101674.34;7353447;19;20042;-62
2022/07/17 01:57:00;;;;;;;0.00;0.00;;;;;;;22.21;56.77;101680.59;7352779;19;20027;-62
2022/07/17 01:59:25;;;;;;;0.10;0.10;;;;;;;22.21;56.91;101661.97;7349023;19;20021;-61
2022/07/17 02:01:50;;;;;;;0.00;0.00;;;;;;;22.21;56.86;101672.63;7359328;19;20007;-62
2022/07/17 02:04:16;;;;;;;0.10;0.10;;;;;;;22.20;56.72;101650.47;7358400;19;20014;-62
2022/07/17 02:06:41;;;;;;;0.08;0.08;;;;;;;22.21;56.72;101646.00;7358659;19;20015;-62
2022/07/17 02:09:06;;;;;;;0.00;0.00;;;;;;;22.19;56.94;101655.88;7359678;19;20037;-61
2022/07/17 02:11:32;;;;;;;0.00;0.00;;;;;;;22.14;56.42;101650.81;7359047;19;20103;-62
2022/07/17 02:13:57;;;;;;;0.00;0.00;;;;;;;22.18;56.85;101659.47;7356935;19;20064;-62
2022/07/17 02:16:23;;;;;;;0.05;0.05;;;;;;;22.16;57.01;101669.34;7216384;19;2825178;-62
2022/07/17 02:18:48;;;;;;;0.00;0.00;;;;;;;22.14;57.45;101674.75;7362734;19;20030;-62
2022/07/17 02:21:13;;;;;;;0.00;0.00;;;;;;;22.14;56.71;101671.22;7360863;19;20010;-62
2022/07/17 02:23:39;;;;;;;0.10;0.10;;;;;;;22.13;57.00;101674.84;7360996;19;20078;-62
2022/07/17 02:26:04;;;;;;;0.00;0.00;;;;;;;22.12;56.99;101673.97;7359680;19;20010;-62
2022/07/17 02:28:30;;;;;;;0.00;0.00;;;;;;;22.13;57.45;101685.47;7361404;19;20015;-61
2022/07/17 02:30:55;;;;;;;0.00;0.00;;;;;;;22.11;57.08;101685.56;7358741;19;20638;-62
2022/07/17 02:33:20;;;;;;;0.00;0.00;;;;;;;22.11;57.32;101692.69;7361547;19;20014;-62
2022/07/17 02:35:46;;;;;;;0.08;0.08;;;;;;;22.10;57.19;101697.13;7356829;19;20425;-62
2022/07/17 02:38:12;;;;;;;0.10;0.10;;;;;;;22.08;56.99;101692.81;7360293;19;20014;-61
2022/07/17 02:40:37;;;;;;;0.00;0.00;;;;;;;22.07;57.24;101691.13;7361021;19;20042;-62
2022/07/17 02:43:02;;;;;;;0.00;0.00;;;;;;;22.05;56.91;101706.28;7361203;19;20128;-62
2022/07/17 02:45:28;;;;;;;0.00;0.00;;;;;;;22.03;56.93;101707.22;7358215;19;20006;-62
2022/07/17 02:47:57;;;;;;;0.00;0.00;;;;;;;22.01;57.22;101702.94;7359658;19;20939;-61
2022/07/17 02:50:22;;;;;;;0.10;0.10;;;;;;;21.97;57.21;101710.22;7357895;19;20169;-62
2022/07/17 02:52:49;;;;;;;0.00;0.00;;;;;;;21.94;56.51;101706.88;7363125;19;20207;-62
2022/07/17 02:55:16;;;;;;;0.00;0.00;;;;;;;21.89;56.56;101709.78;7360475;19;20352;-61
2022/07/17 02:57:41;;;;;;;0.00;0.00;;;;;;;21.84;56.42;101706.50;7368671;19;20014;-62
2022/07/17 03:00:11;;;;;;;0.00;0.00;;;;;;;21.80;56.54;101710.28;7367666;19;20458;-61
2022/07/17 03:02:37;;;;;;;0.00;0.00;;;;;;;21.75;55.38;101720.31;7368790;19;20477;-62
2022/07/17 03:05:03;;;;;;;0.00;0.00;;;;;;;21.65;55.84;101698.69;7356917;19;20031;-62
2022/07/17 03:07:29;;;;;;;0.00;0.00;;;;;;;21.65;56.36;101708.47;7367136;19;21226;-62
2022/07/17 03:09:54;;;;;;;0.00;0.00;;;;;;;21.48;56.93;101688.91;7368684;19;20020;-62
2022/07/17 03:12:20;;;;;;;0.00;0.00;;;;;;;21.56;57.35;101706.28;7367785;19;20099;-62
2022/07/17 03:14:45;;;;;;;0.00;0.00;;;;;;;21.53;57.23;101698.44;7368605;19;20014;-62
2022/07/17 03:17:10;;;;;;;0.00;0.00;;;;;;;21.49;57.33;101701.28;7367049;19;20100;-62
2022/07/17 03:19:36;;;;;;;0.05;0.05;;;;;;;21.47;57.47;101708.47;7365290;19;20049;-62
2022/07/17 03:22:02;;;;;;;0.00;0.00;;;;;;;21.38;57.39;101687.69;7362300;19;20011;-62
2022/07/17 03:24:27;;;;;;;0.00;0.00;;;;;;;21.43;57.43;101695.41;7368041;19;20041;-61
2022/07/17 03:26:53;;;;;;;0.00;0.00;;;;;;;21.39;57.37;101684.09;7367470;19;20082;-61
2022/07/17 03:29:18;;;;;;;0.00;0.00;;;;;;;21.39;57.18;101689.44;7369154;19;20029;-62
2022/07/17 03:31:45;;;;;;;0.10;0.10;;;;;;;21.37;56.21;101696.59;7368364;19;20580;-62
2022/07/17 03:34:10;;;;;;;0.03;0.03;;;;;;;21.33;56.53;101700.34;7362868;19;20003;-62
2022/07/17 03:36:36;;;;;;;0.00;0.00;;;;;;;21.31;57.53;101704.88;7368597;19;20006;-61
2022/07/17 03:39:01;;;;;;;0.03;0.03;;;;;;;21.27;57.60;101700.63;7366069;19;20010;-62
2022/07/17 03:41:26;;;;;;;0.00;0.00;;;;;;;21.24;57.69;101700.81;7367209;19;20010;-62
2022/07/17 03:43:52;;;;;;;0.10;0.10;;;;;;;21.19;57.91;101698.38;7365726;19;20018;-61
2022/07/17 03:46:17;;;;;;;0.10;0.10;;;;;;;21.18;56.87;101698.44;7365211;19;20015;-62
2022/07/17 03:48:44;;;;;;;0.00;0.00;;;;;;;21.13;57.22;101693.38;7368400;19;20490;-62
2022/07/17 03:51:09;;;;;;;0.10;0.10;;;;;;;20.99;56.60;101680.81;7367762;19;20086;-62
2022/07/17 03:53:34;;;;;;;0.10;0.10;;;;;;;21.04;57.99;101687.69;7367896;19;20032;-62
2022/07/17 03:56:00;;;;;;;0.00;0.00;;;;;;;20.99;58.27;101691.44;7366474;19;20006;-62
2022/07/17 03:58:25;;;;;;;0.00;0.00;;;;;;;20.83;58.18;101677.19;7367648;19;20018;-62
2022/07/17 04:00:51;;;;;;;0.03;0.03;;;;;;;20.93;57.59;101696.16;7369583;19;20038;-62
2022/07/17 04:03:16;;;;;;;0.00;0.00;;;;;;;20.87;57.95;101696.47;7365530;19;20023;-62
2022/07/17 04:05:42;;;;;;;0.00;0.00;;;;;;;20.86;57.92;101689.47;7368154;19;20018;-62
2022/07/17 04:08:07;;;;;;;0.00;0.00;;;;;;;20.85;57.85;101699.22;7363199;19;20022;-62
2022/07/17 04:10:33;;;;;;;0.00;0.00;;;;;;;20.82;57.38;101704.69;7366709;19;20039;-62
2022/07/17 04:12:58;;;;;;;0.00;0.00;;;;;;;20.81;57.28;101700.31;7365133;19;20529;-62
2022/07/17 04:18:08;;;;;;;0.05;0.05;;;;;;;20.70;57.23;101694.69;7367866;19;20009;-61
2022/07/17 04:20:33;;;;;;;0.00;0.00;;;;;;;20.72;57.12;101701.63;7366331;19;21977;-62
2022/07/17 04:22:59;;;;;;;0.00;0.00;;;;;;;20.70;57.67;101697.34;7366361;19;20668;-62
2022/07/17 04:25:24;;;;;;;0.00;0.00;;;;;;;20.67;58.34;101700.13;7366125;19;20010;-62
2022/07/17 04:27:50;;;;;;;0.10;0.10;;;;;;;20.58;57.08;101689.94;7367066;19;20010;-61
2022/07/17 04:30:15;;;;;;;0.00;0.00;;;;;;;20.63;57.33;101696.78;7365514;19;20022;-62
2022/07/17 04:32:41;;;;;;;0.00;0.00;;;;;;;20.63;57.48;101709.16;7366735;19;20025;-62
2022/07/17 04:35:06;;;;;;;0.05;0.05;;;;;;;20.60;57.70;101702.22;7368386;19;20379;-61
2022/07/17 04:37:32;;;;;;;0.00;0.00;;;;;;;20.59;57.46;101702.31;7364220;19;20013;-62
2022/07/17 04:39:57;;;;;;;0.00;0.00;;;;;;;20.57;57.72;101701.50;7366670;19;20018;-62
2022/07/17 04:42:23;;;;;;;0.10;0.10;;;;;;;20.53;57.90;101702.59;7366460;19;20014;-62
2022/07/17 04:44:48;;;;;;;0.00;0.00;;;;;;;20.52;57.96;101696.41;7366861;19;20014;-62
2022/07/17 04:47:13;;;;;;;0.00;0.00;;;;;;;20.50;57.67;101703.59;7365378;19;20029;-62
2022/07/17 04:49:39;;;;;;;0.00;0.00;;;;;;;20.46;58.15;101697.56;7366567;19;20044;-62
2022/07/17 04:52:04;;;;;;;0.05;0.05;;;;;;;20.39;57.81;101690.81;7364391;19;20009;-62
2022/07/17 04:54:29;;;;;;;0.10;0.10;;;;;;;20.41;57.80;101694.25;7365616;19;20466;-61
2022/07/17 04:56:55;;;;;;;0.00;0.00;;;;;;;20.35;58.10;101699.84;7365010;19;20009;-62
2022/07/17 04:59:20;;;;;;;0.00;0.00;;;;;;;20.32;58.79;101696.47;7365603;19;20022;-61
2022/07/17 05:01:46;;;;;;;0.00;0.00;;;;;;;20.29;58.47;101697.50;7364772;19;20106;-61
2022/07/17 05:04:12;;;;;;;0.00;0.00;;;;;;;20.25;58.81;101698.56;7366336;19;20017;-62
2022/07/17 05:06:37;;;;;;;0.10;0.10;;;;;;;20.17;58.62;101682.16;7365099;19;20048;-62
2022/07/17 05:09:03;;;;;;;0.00;0.00;;;;;;;20.24;58.57;101694.22;7366910;19;20011;-62
2022/07/17 05:11:28;;;;;;;0.00;0.00;;;;;;;20.26;58.59;101684.38;7365203;19;20026;-62
2022/07/17 05:13:54;;;;;;;0.10;0.10;;;;;;;20.28;58.71;101687.84;7364266;19;20014;-62
2022/07/17 05:16:20;;;;;;;0.10;0.10;;;;;;;20.18;58.96;101660.03;7364114;19;20077;-62
2022/07/17 05:18:45;;;;;;;0.10;0.10;;;;;;;20.30;58.49;101683.31;7365252;19;20028;-62
2022/07/17 05:21:10;;;;;;;0.00;0.00;;;;;;;20.19;57.94;101659.09;7364163;19;20015;-62
2022/07/17 05:23:36;;;;;;;0.00;0.00;;;;;;;20.33;59.03;101679.66;7365162;19;20010;-62
2022/07/17 05:26:01;;;;;;;0.00;0.00;;;;;;;20.33;58.40;101675.22;7365658;19;20010;-62
2022/07/17 05:28:27;;;;;;;0.00;0.00;;;;;;;20.34;58.54;101670.75;7363543;19;20010;-62
2022/07/17 05:30:52;;;;;;;0.00;0.00;;;;;;;20.36;59.23;101668.88;7363513;19;20455;-62
2022/07/17 05:33:18;;;;;;;0.10;0.10;;;;;;;20.31;59.78;101661.13;7363742;19;20010;-62
2022/07/17 05:35:43;;;;;;;0.00;0.00;;;;;;;20.37;59.88;101660.84;7364876;19;20078;-62
2022/07/17 05:38:10;;;;;;;0.10;0.10;;;;;;;20.39;60.05;101664.28;7362609;19;20010;-61
2022/07/17 05:40:35;;;;;;;0.00;0.00;;;;;;;20.39;59.87;101656.34;7366412;19;20002;-62
2022/07/17 05:43:01;;;;;;;0.10;0.10;;;;;;;20.43;59.17;101660.56;7363930;19;20026;-62
2022/07/17 05:45:26;;;;;;;0.10;0.10;;;;;;;20.47;59.44;101655.97;7364418;19;20614;-62
2022/07/17 05:47:52;;;;;;;0.10;0.10;;;;;;;20.50;60.05;101660.28;7364306;19;20026;-62
2022/07/17 05:50:17;;;;;;;0.00;0.00;;;;;;;20.47;59.48;101651.53;7364093;19;20430;-62
2022/07/17 05:52:43;;;;;;;0.00;0.00;;;;;;;20.57;59.69;101657.25;7364873;19;20010;-62
2022/07/17 05:55:09;;;;;;;0.03;0.03;;;;;;;20.62;59.43;101660.53;7364041;19;20013;-61
2022/07/17 05:57:34;;;;;;;0.00;0.00;;;;;;;20.66;59.16;101642.66;7364032;19;20010;-62
2022/07/17 06:00:00;;;;;;;0.10;0.10;;;;;;;20.70;58.85;101641.59;7361445;19;20011;-62
2022/07/17 06:02:25;;;;;;;0.10;0.10;;;;;;;20.74;58.65;101643.16;7363424;19;20496;-62
2022/07/17 06:04:50;;;;;;;0.00;0.00;;;;;;;20.77;58.86;101640.34;7364473;19;20395;-62
2022/07/17 06:07:16;;;;;;;0.00;0.00;;;;;;;20.81;59.28;101644.56;7362472;19;20015;-62
2022/07/17 06:09:41;;;;;;;0.00;0.00;;;;;;;20.75;59.21;101638.72;7363068;19;20019;-62
2022/07/17 06:12:07;;;;;;;0.05;0.05;;;;;;;20.88;59.90;101650.41;7362750;19;20011;-62
2022/07/17 06:14:32;;;;;;;0.00;0.00;;;;;;;20.93;59.69;101654.56;7361595;19;20022;-62
2022/07/17 06:16:57;;;;;;;0.10;0.10;;;;;;;20.96;59.72;101654.41;7362417;19;20030;-60
2022/07/17 06:19:23;;;;;;;0.00;0.00;;;;;;;20.99;60.17;101654.25;7364070;19;20010;-62
2022/07/17 06:21:48;;;;;;;0.00;0.00;;;;;;;21.06;59.72;101656.59;7363873;19;20026;-62
2022/07/17 06:24:14;;;;;;;0.08;0.08;;;;;;;21.10;59.96;101661.66;7363582;19;20118;-62
2022/07/17 06:26:39;;;;;;;0.00;0.00;;;;;;;21.14;59.80;101662.38;7360257;19;21468;-62
2022/07/17 06:29:05;;;;;;;0.10;0.10;;;;;;;21.18;59.90;101659.47;7362460;19;20026;-62
2022/07/17 06:31:30;;;;;;;0.00;0.00;;;;;;;21.28;59.09;101670.47;7365643;19;20014;-62
2022/07/17 06:33:55;;;;;;;0.00;0.00;;;;;;;21.32;59.01;101666.75;7369048;19;20006;-62
2022/07/17 06:36:21;;;;;;;0.10;0.10;;;;;;;21.37;59.32;101670.03;7368181;19;20015;-62
2022/07/17 06:38:46;;;;;;;0.00;0.00;;;;;;;21.42;58.96;101665.31;7365605;19;20077;-62
2022/07/17 06:41:12;;;;;;;0.00;0.00;;;;;;;21.46;59.66;101669.53;7368744;19;20022;-62
2022/07/17 06:43:37;;;;;;;0.10;0.10;;;;;;;21.50;59.81;101673.78;7368075;19;20006;-62
2022/07/17 06:46:02;;;;;;;0.00;0.00;;;;;;;21.53;58.41;101669.22;7368328;19;20020;-62
2022/07/17 06:48:28;;;;;;;0.10;0.10;;;;;;;21.59;58.82;101674.19;7367585;19;20014;-62
2022/07/17 06:50:53;;;;;;;0.00;0.00;;;;;;;21.64;59.06;101680.13;7368531;19;20037;-62
2022/07/17 06:53:19;;;;;;;0.00;0.00;;;;;;;21.69;58.43;101683.41;7366001;19;20018;-62
2022/07/17 06:55:44;;;;;;;0.10;0.10;;;;;;;21.64;58.96;101669.50;7368590;19;20023;-62
2022/07/17 06:58:10;;;;;;;0.00;0.00;;;;;;;21.75;58.28;101686.59;7367257;19;20979;-62
2022/07/17 07:00:35;;;;;;;0.00;0.00;;;;;;;21.79;58.14;101692.59;7370609;19;20023;-62
2022/07/17 07:03:01;;;;;;;0.00;0.00;;;;;;;21.84;58.42;101687.03;7369304;19;20093;-63
2022/07/17 07:05:26;;;;;;;0.00;0.00;;;;;;;21.85;58.35;101681.66;7365962;19;20006;-61
2022/07/17 07:07:52;;;;;;;0.00;0.00;;;;;;;21.92;58.59;101687.50;7368315;19;20003;-63
2022/07/17 07:10:18;;;;;;;0.00;0.00;;;;;;;21.96;58.65;101692.56;7364478;19;20015;-63
2022/07/17 07:12:43;;;;;;;0.00;0.00;;;;;;;22.00;58.89;101688.78;7368500;19;20010;-62
2022/07/17 07:15:09;;;;;;;0.10;0.10;;;;;;;22.05;59.18;101696.53;7368666;19;20391;-62
2022/07/17 07:17:35;;;;;;;0.00;0.00;;;;;;;22.11;58.58;101690.03;7368573;19;20690;-62
2022/07/17 07:20:04;;;;;;;0.00;0.00;;;;;;;22.08;58.58;101671.53;7365870;19;20778;-62
2022/07/17 07:22:30;;;;;;;0.00;0.00;;;;;;;22.23;58.18;101686.69;7368162;19;20046;-63
2022/07/17 07:24:56;;;;;;;0.00;0.00;;;;;;;22.30;57.59;101690.69;7364832;19;20010;-62
2022/07/17 07:27:22;;;;;;;0.00;0.00;;;;;;;22.37;57.91;101689.44;7368225;19;20372;-62
2022/07/17 07:29:47;;;;;;;0.00;0.00;;;;;;;22.36;57.58;101677.06;7365507;19;20014;-62
2022/07/17 07:32:12;;;;;;;0.05;0.05;;;;;;;22.48;57.62;101687.00;7367253;19;20043;-62
2022/07/17 07:34:38;;;;;;;0.10;0.10;;;;;;;22.54;57.61;101684.00;7368086;19;20014;-63
2022/07/17 07:37:03;;;;;;;0.00;0.00;;;;;;;22.61;57.60;101686.31;7365359;19;20042;-62
2022/07/17 07:39:29;;;;;;;0.00;0.00;;;;;;;22.67;56.98;101688.63;7367737;19;20013;-62
2022/07/17 07:41:54;;;;;;;0.10;0.10;;;;;;;22.70;56.97;101681.31;7364791;19;20022;-62
2022/07/17 07:44:20;;;;;;;0.00;0.00;;;;;;;22.73;57.21;101677.63;7368497;19;20010;-63
2022/07/17 07:46:45;;;;;;;0.10;0.10;;;;;;;22.80;56.69;101686.97;7363944;19;20108;-63
2022/07/17 07:49:10;;;;;;;0.10;0.10;;;;;;;22.84;56.77;101688.50;7365832;19;20042;-63
2022/07/17 07:51:36;;;;;;;0.00;0.00;;;;;;;22.91;56.48;101681.03;7365364;19;20798;-62
2022/07/17 07:54:01;;;;;;;0.00;0.00;;;;;;;22.94;56.10;101668.41;7367040;19;20038;-62
2022/07/17 07:56:27;;;;;;;0.10;0.10;;;;;;;22.85;55.95;101644.94;7365360;19;20014;-62
2022/07/17 07:58:52;;;;;;;0.00;0.00;;;;;;;23.03;55.98;101667.84;7364256;19;20018;-62
2022/07/17 08:01:18;;;;;;;0.00;0.00;;;;;;;23.10;56.18;101672.81;7366335;19;20143;-62
2022/07/17 08:03:43;;;;;;;0.10;0.10;;;;;;;23.13;56.23;101667.31;7365232;19;20029;-62
2022/07/17 08:06:08;;;;;;;0.10;0.10;;;;;;;23.07;56.23;101651.69;7366014;19;20118;-62
2022/07/17 08:08:34;;;;;;;0.05;0.05;;;;;;;23.05;56.62;101641.97;7367332;19;20011;-62
2022/07/17 08:10:59;;;;;;;0.10;0.10;;;;;;;23.22;56.23;101653.44;7366004;19;20082;-62
2022/07/17 08:13:25;;;;;;;0.10;0.10;;;;;;;23.26;56.83;101649.63;7366833;19;20018;-63
2022/07/17 08:15:50;;;;;;;0.10;0.10;;;;;;;23.30;56.34;101640.50;7363469;19;20014;-63
2022/07/17 08:18:15;;;;;;;0.10;0.10;;;;;;;23.35;54.90;101640.22;7366000;19;20022;-62
2022/07/17 08:20:41;;;;;;;0.10;0.10;;;;;;;23.40;55.62;101636.31;7363266;19;20014;-62
2022/07/17 08:23:06;;;;;;;0.00;0.00;;;;;;;23.45;55.56;101630.69;7367438;19;20027;-62
2022/07/17 08:25:34;;;;;;;0.10;0.10;;;;;;;23.42;54.78;101615.75;7366826;19;20047;-62
2022/07/17 08:28:00;;;;;;;0.10;0.10;;;;;;;23.52;55.49;101622.22;7366110;19;20859;-62
2022/07/17 08:30:25;;;;;;;0.10;0.10;;;;;;;23.50;54.64;101613.47;7364649;19;20014;-62
2022/07/17 08:32:51;;;;;;;0.08;0.08;;;;;;;23.62;54.49;101611.84;7362966;19;20014;-62
2022/07/17 08:35:16;;;;;;;0.10;0.10;;;;;;;23.67;54.24;101606.22;7366445;19;20006;-62
2022/07/17 08:37:52;;;;;;;0.00;0.00;;;;;;;23.80;54.05;101600.03;7364621;19;20027;-62
2022/07/17 08:40:25;;;;;;;0.10;0.10;;;;;;;23.88;53.47;101602.22;7359499;19;20017;-62
2022/07/17 08:42:53;;;;;;;0.00;0.00;;;;;;;23.92;53.64;101602.84;7364344;19;20653;-62
2022/07/17 08:45:18;;;;;;;0.00;0.00;;;;;;;23.97;52.64;101596.25;7364565;19;20037;-62
2022/07/17 08:47:44;;;;;;;0.00;0.00;;;;;;;24.06;52.79;101594.81;7364349;19;20589;-62
2022/07/17 08:50:11;;;;;;;0.00;0.00;;;;;;;24.12;52.30;101590.91;7363795;19;20002;-63
2022/07/17 08:52:38;;;;;;;0.10;0.10;;;;;;;24.22;52.98;101586.66;7364760;19;20819;-62
2022/07/17 08:55:04;;;;;;;;;;;;;;;24.37;52.85;101582.16;7360270;19;20023;-62
2022/07/17 08:57:29;;;;;;;0.03;0.03;;;;;;;24.37;52.07;101575.00;7364571;19;19990;-62
2022/07/17 08:59:55;;;;;;;0.00;0.00;;;;;;;24.44;51.94;101579.00;7363055;19;20010;-62
2022/07/17 09:02:21;;;;;;;0.00;0.00;;;;;;;24.53;51.26;101577.50;7365539;19;20699;-62
2022/07/17 09:04:54;;;;;;;0.10;0.10;;;;;;;24.56;51.30;101572.81;7361656;19;20608;-62
2022/07/17 09:07:19;;;;;;;0.00;0.00;;;;;;;24.65;51.35;101578.50;7363997;19;20645;-62
2022/07/17 09:09:51;;;;;;;0.10;0.10;;;;;;;24.77;51.13;101575.84;7359420;19;20093;-62
2022/07/17 09:12:17;;;;;;;0.00;0.00;;;;;;;24.76;50.95;101560.78;7361643;19;20065;-62
2022/07/17 09:14:43;;;;;;;0.05;0.05;;;;;;;24.85;50.72;101568.16;7360349;19;20093;-62
2022/07/17 09:17:11;;;;;;;0.10;0.10;;;;;;;24.96;50.88;101563.88;7361695;19;20661;-62
2022/07/17 09:19:40;;;;;;;0.10;0.10;;;;;;;25.05;50.40;101564.09;7359758;19;21318;-61
2022/07/17 09:22:16;;;;;;;0.10;0.10;;;;;;;25.25;50.38;101564.56;7361976;19;20031;-62
2022/07/17 09:24:48;;;;;;;0.10;0.10;;;;;;;25.35;49.65;101562.94;7360519;19;20006;-62
2022/07/17 09:27:18;;;;;;;0.10;0.10;;;;;;;25.36;50.33;101559.28;7361680;19;20432;-62
2022/07/17 09:29:54;;;;;;;0.10;0.10;;;;;;;25.66;49.90;101558.91;7361460;19;20014;-62
2022/07/17 09:32:21;;;;;;;0.10;0.10;;;;;;;25.83;49.45;101549.69;7362471;19;20018;-62
2022/07/17 09:34:48;;;;;;;0.10;0.10;;;;;;;25.94;49.20;101536.34;7359373;19;20126;-61
2022/07/17 09:37:14;;;;;;;0.05;0.05;;;;;;;26.26;47.72;101549.19;7359527;19;20006;-62
2022/07/17 09:39:40;;;;;;;0.05;0.05;;;;;;;26.49;47.04;101547.44;7361808;19;20703;-62
2022/07/17 09:42:06;;;;;;;0.10;0.10;;;;;;;26.71;46.53;101554.69;7362578;19;20094;-62
2022/07/17 09:44:31;;;;;;;0.10;0.10;;;;;;;26.89;47.27;101551.44;7360053;19;20078;-63
2022/07/17 09:46:57;;;;;;;0.05;0.05;;;;;;;27.11;45.74;101552.44;7361404;19;20781;-62
2022/07/17 09:49:26;;;;;;;0.10;0.10;;;;;;;27.33;45.74;101549.78;7359255;19;20006;-62
2022/07/17 09:51:52;;;;;;;0.10;0.10;;;;;;;27.59;45.37;101555.72;7359458;19;20039;-62
2022/07/17 09:54:21;;;;;;;0.10;0.10;;;;;;;27.90;45.39;101547.88;7358813;19;20035;-62
2022/07/17 09:56:50;;;;;;;0.10;0.10;;;;;;;28.16;44.02;101549.25;7360849;19;20429;-61
2022/07/17 09:59:17;;;;;;;0.00;0.00;;;;;;;28.31;44.33;101541.75;7360434;19;20045;-61
2022/07/17 10:01:44;;;;;;;0.00;0.00;;;;;;;28.50;42.91;101549.13;7360027;19;20025;-62
2022/07/17 10:04:10;;;;;;;0.00;0.00;;;;;;;28.74;43.15;101545.31;7361323;19;20169;-62
2022/07/17 10:06:36;;;;;;;0.03;0.03;;;;;;;29.01;42.16;101544.81;7363612;19;19999;-62
2022/07/17 10:09:03;;;;;;;0.10;0.10;;;;;;;29.23;42.32;101549.16;7367134;19;20086;-63
2022/07/17 10:11:30;;;;;;;0.10;0.10;;;;;;;29.46;42.45;101551.50;7367713;19;20058;-62
2022/07/17 10:14:10;;;;;;;0.00;0.00;;;;;;;29.77;41.99;101547.94;7368016;19;20345;-62
2022/07/17 10:16:38;;;;;;;0.00;0.00;;;;;;;29.95;42.19;101543.53;7366479;19;20021;-62
2022/07/17 10:19:19;;;;;;;0.00;0.00;;;;;;;30.27;41.57;101546.03;7362937;19;20010;-62
2022/07/17 10:21:58;;;;;;;0.00;0.00;;;;;;;30.52;41.08;101533.78;7353387;19;20017;-62
2022/07/17 10:24:27;;;;;;;0.00;0.00;;;;;;;30.62;39.09;101540.03;7359241;19;20041;-62
2022/07/17 10:26:53;;;;;;;0.00;0.00;;;;;;;30.80;40.81;101518.56;7359014;19;20011;-62
2022/07/17 10:29:28;;;;;;;0.00;0.00;;;;;;;31.17;40.80;101528.50;7352944;19;20031;-62
2022/07/17 10:31:53;;;;;;;0.00;0.00;;;;;;;31.32;38.26;101518.09;7359462;19;20521;-62
2022/07/17 10:34:37;;;;;;;0.00;0.00;;;;;;;31.60;39.51;101513.53;7358066;19;20080;-62
2022/07/17 10:37:27;;;;;;;0.10;0.10;;;;;;;31.96;39.58;101520.69;7362011;19;20010;-62
2022/07/17 10:40:00;;;;;;;0.00;0.00;;;;;;;32.31;38.75;101528.94;7360765;19;20017;-62
2022/07/17 10:42:44;;;;;;;0.00;0.00;;;;;;;32.59;39.03;101525.09;7352457;19;20030;-62
2022/07/17 10:45:12;;;;;;;0.00;0.00;;;;;;;32.67;36.41;101518.91;7356159;19;20911;-62
2022/07/17 10:47:45;;;;;;;0.10;0.10;;;;;;;32.93;36.97;101519.78;7359389;19;20049;-63
2022/07/17 10:50:11;;;;;;;0.00;0.00;;;;;;;33.04;34.97;101516.78;7361488;19;20031;-62
2022/07/17 10:52:37;;;;;;;0.00;0.00;;;;;;;33.16;35.39;101501.13;7361184;19;20028;-62
2022/07/17 10:55:05;;;;;;;0.00;0.00;;;;;;;33.47;35.71;101495.16;7358079;19;20086;-62
2022/07/17 10:57:33;;;;;;;0.00;0.00;;;;;;;33.89;33.81;101491.50;7359001;19;20838;-62
2022/07/17 10:59:58;;;;;;;0.00;0.00;;;;;;;34.14;32.33;101504.06;7358641;19;20018;-61
2022/07/17 11:02:29;;;;;;;0.00;0.00;;;;;;;34.41;33.33;101494.72;7358579;19;20027;-62
2022/07/17 11:04:54;;;;;;;0.10;0.10;;;;;;;34.39;32.00;101495.94;7359140;19;20003;-62
2022/07/17 11:07:19;;;;;;;0.00;0.00;;;;;;;34.43;32.76;101491.88;7360812;19;20025;-62
2022/07/17 11:09:48;;;;;;;0.00;0.00;;;;;;;34.53;33.06;101487.13;7358061;19;20017;-62
2022/07/17 11:12:16;;;;;;;0.00;0.00;;;;;;;34.45;31.13;101482.56;7356479;19;22402;-62
2022/07/17 11:14:41;;;;;;;0.10;0.10;;;;;;;34.42;31.12;101485.59;7358106;19;20375;-62
2022/07/17 11:17:07;;;;;;;0.00;0.00;;;;;;;34.38;30.07;101483.41;7358097;19;20022;-62
2022/07/17 11:19:39;;;;;;;0.00;0.00;;;;;;;34.39;31.82;101482.38;7360586;19;20013;-62
2022/07/17 11:22:10;;;;;;;0.00;0.00;;;;;;;34.24;30.26;101477.63;7356092;19;20010;-62
2022/07/17 11:24:47;;;;;;;0.00;0.00;;;;;;;34.10;32.35;101469.34;7359230;19;20018;-62
2022/07/17 11:27:19;;;;;;;0.00;0.00;;;;;;;33.95;32.40;101471.88;7358757;19;20657;-62